Time;durP1;ratioP1;P1;durP2;ratioP2;P2;SDS_P1;SDS_P2;PMS_P1;PMS_P2;Temp;Humidity;BMP_temperature;BMP_pressure;BME280_temperature;BME280_humidity;BME280_pressure;Samples;Min_cycle;Max_cycle;Signal;HPM_P1;HPM_P2
2022/03/28 00:01:02;;;;;;;25.90;15.00;;;6.10;99.90;;;;;;5002563;28;20233;-51
2022/03/28 00:03:34;;;;;;;22.00;12.55;;;6.10;99.90;;;;;;5002461;28;20210;-50
2022/03/28 00:06:03;;;;;;;24.75;14.88;;;6.00;99.90;;;;;;5002649;28;20201;-53
2022/03/28 00:08:34;;;;;;;19.38;13.45;;;6.00;99.90;;;;;;5002390;28;20252;-49
2022/03/28 00:11:02;;;;;;;19.30;13.57;;;6.00;99.90;;;;;;5002403;28;20606;-51
2022/03/28 00:13:33;;;;;;;23.73;14.35;;;6.00;99.90;;;;;;5002197;28;20236;-51
2022/03/28 00:16:04;;;;;;;21.13;12.90;;;6.00;99.90;;;;;;5002400;28;20222;-48
2022/03/28 00:18:31;;;;;;;21.35;13.63;;;5.90;99.90;;;;;;5002682;28;20252;-50
2022/03/28 00:20:59;;;;;;;23.60;13.25;;;6.00;99.90;;;;;;5002200;28;20445;-49
2022/03/28 00:23:27;;;;;;;21.85;14.30;;;5.90;99.90;;;;;;5002376;28;20201;-48
2022/03/28 00:25:54;;;;;;;23.63;12.77;;;5.90;99.90;;;;;;5002177;28;20201;-49
2022/03/28 00:28:24;;;;;;;19.08;13.00;;;5.90;99.90;;;;;;5002375;28;20198;-51
2022/03/28 00:30:52;;;;;;;24.52;13.55;;;5.90;99.90;;;;;;5002123;28;20244;-54
2022/03/28 00:33:19;;;;;;;22.42;14.82;;;5.90;99.90;;;;;;5001947;28;20209;-50
2022/03/28 00:35:46;;;;;;;23.35;14.13;;;5.80;99.90;;;;;;5002312;28;20200;-47
2022/03/28 00:38:14;;;;;;;20.15;14.32;;;5.80;99.90;;;;;;5001786;28;20531;-50
2022/03/28 00:40:42;;;;;;;31.10;14.35;;;5.80;99.90;;;;;;5002023;28;20233;-48
2022/03/28 00:43:10;;;;;;;28.95;14.05;;;5.70;99.90;;;;;;5001895;28;20205;-48
2022/03/28 00:45:40;;;;;;;21.17;14.98;;;5.70;99.90;;;;;;5002058;28;20247;-48
2022/03/28 00:48:09;;;;;;;24.50;14.70;;;5.60;99.90;;;;;;5001531;28;20201;-52
2022/03/28 00:50:37;;;;;;;25.10;14.85;;;5.50;99.90;;;;;;5001699;28;20266;-51
2022/03/28 00:53:09;;;;;;;22.13;14.43;;;5.30;99.90;;;;;;5001313;28;20248;-51
2022/03/28 00:55:37;;;;;;;27.70;14.55;;;5.40;99.90;;;;;;5001929;28;20252;-49
2022/03/28 00:58:04;;;;;;;21.17;13.43;;;5.40;99.90;;;;;;5001939;28;20205;-47
2022/03/28 01:00:32;;;;;;;26.27;16.58;;;5.30;99.90;;;;;;5001808;28;20266;-47
2022/03/28 01:03:03;;;;;;;25.42;14.98;;;5.40;99.90;;;;;;5001611;28;20247;-47
2022/03/28 01:05:31;;;;;;;32.30;16.90;;;5.40;99.90;;;;;;5000140;28;20272;-51
2022/03/28 01:08:00;;;;;;;25.20;16.05;;;5.30;99.90;;;;;;5001726;28;20252;-48
2022/03/28 01:10:29;;;;;;;20.77;15.18;;;5.30;99.90;;;;;;5001215;28;20205;-48
2022/03/28 01:12:57;;;;;;;25.95;16.30;;;5.30;99.90;;;;;;5001533;28;20212;-48
2022/03/28 01:15:25;;;;;;;25.17;16.20;;;5.20;99.90;;;;;;5001142;28;20219;-49
2022/03/28 01:18:11;;;;;;;23.85;16.55;;;5.30;99.90;;;;;;5001659;28;20467;-48
2022/03/28 01:20:40;;;;;;;25.95;15.60;;;5.20;99.90;;;;;;5001799;28;20267;-49
2022/03/28 01:23:08;;;;;;;26.33;15.57;;;5.20;99.90;;;;;;5002170;28;20201;-50
2022/03/28 01:25:36;;;;;;;22.60;15.70;;;5.20;99.90;;;;;;5001675;28;20228;-51
2022/03/28 01:28:04;;;;;;;25.90;16.52;;;5.20;99.90;;;;;;5001278;28;20557;-48
2022/03/28 01:30:32;;;;;;;32.70;18.58;;;5.10;99.90;;;;;;5000841;28;20725;-49
2022/03/28 01:33:00;;;;;;;20.17;15.25;;;5.20;99.90;;;;;;5001334;28;20395;-51
2022/03/28 01:35:32;;;;;;;31.50;17.52;;;5.20;99.90;;;;;;5000886;28;20204;-49
2022/03/28 01:38:06;;;;;;;24.65;14.98;;;5.20;99.90;;;;;;5001034;28;20415;-49
2022/03/28 01:40:37;;;;;;;21.00;13.82;;;5.20;99.90;;;;;;5000872;28;20228;-49
2022/03/28 01:43:05;;;;;;;25.15;15.20;;;5.20;99.90;;;;;;5000435;28;20239;-51
2022/03/28 01:45:33;;;;;;;29.45;16.58;;;5.10;99.90;;;;;;5000979;28;20523;-51
2022/03/28 01:48:01;;;;;;;23.73;15.43;;;5.10;99.90;;;;;;5000580;28;20197;-54
2022/03/28 01:50:28;;;;;;;20.10;14.75;;;5.10;99.90;;;;;;5000682;28;20208;-53
2022/03/28 01:52:56;;;;;;;19.77;14.35;;;5.10;99.90;;;;;;5000842;28;20216;-52
2022/03/28 01:55:24;;;;;;;26.27;16.33;;;5.10;99.90;;;;;;5000317;28;20204;-51
2022/03/28 01:57:52;;;;;;;20.20;12.82;;;5.10;99.90;;;;;;5000603;28;20570;-50
2022/03/28 02:00:22;;;;;;;25.67;14.10;;;5.10;99.90;;;;;;5000051;28;20244;-50
2022/03/28 02:02:49;;;;;;;23.20;13.43;;;5.10;99.90;;;;;;5000552;28;20452;-52
2022/03/28 02:05:17;;;;;;;22.40;13.68;;;5.00;99.90;;;;;;5000101;28;20239;-54
2022/03/28 02:07:47;;;;;;;24.92;14.32;;;5.10;99.90;;;;;;5000705;28;20543;-49
2022/03/28 02:10:19;;;;;;;23.15;15.02;;;5.00;99.90;;;;;;5000043;28;20241;-49
2022/03/28 02:12:48;;;;;;;23.92;14.98;;;5.10;99.90;;;;;;5000324;28;20232;-51
2022/03/28 02:15:16;;;;;;;18.95;13.45;;;5.10;99.90;;;;;;4999919;28;20450;-50
2022/03/28 02:17:43;;;;;;;20.13;13.25;;;5.10;99.90;;;;;;5000424;28;20217;-51
2022/03/28 02:20:12;;;;;;;22.48;15.00;;;5.10;99.90;;;;;;5000093;28;20542;-49
2022/03/28 02:22:41;;;;;;;23.50;13.63;;;5.10;99.90;;;;;;5000133;28;20221;-52
2022/03/28 02:25:10;;;;;;;23.98;15.85;;;5.10;99.90;;;;;;5000360;28;20280;-50
2022/03/28 02:27:41;;;;;;;24.27;14.18;;;5.00;99.90;;;;;;5000352;28;20259;-52
2022/03/28 02:30:12;;;;;;;23.98;12.65;;;5.10;99.90;;;;;;5000443;28;20232;-47
2022/03/28 02:32:39;;;;;;;20.10;12.73;;;5.10;99.90;;;;;;5000409;28;20235;-51
2022/03/28 02:35:08;;;;;;;20.85;13.43;;;5.10;99.90;;;;;;4999778;28;20208;-48
2022/03/28 02:37:36;;;;;;;20.33;13.43;;;5.10;99.90;;;;;;5000106;28;20562;-48
2022/03/28 02:40:12;;;;;;;20.95;12.45;;;5.10;99.90;;;;;;4999763;28;20247;-51
2022/03/28 02:42:41;;;;;;;24.25;12.85;;;5.10;99.90;;;;;;4992355;28;20255;-46
2022/03/28 02:45:09;;;;;;;20.55;12.50;;;5.10;99.90;;;;;;4994896;28;20403;-48
2022/03/28 02:47:37;;;;;;;19.65;12.00;;;5.10;99.90;;;;;;5000252;28;20197;-50
2022/03/28 02:50:05;;;;;;;19.70;13.40;;;5.00;99.90;;;;;;4999757;28;20511;-51
2022/03/28 02:52:32;;;;;;;21.25;12.90;;;5.00;99.90;;;;;;4999962;28;20556;-50
2022/03/28 02:55:01;;;;;;;16.65;13.60;;;5.00;99.90;;;;;;4999539;28;20244;-50
2022/03/28 02:57:28;;;;;;;23.17;13.75;;;4.90;99.90;;;;;;4999950;28;20201;-48
2022/03/28 02:59:55;;;;;;;21.27;13.20;;;5.00;99.90;;;;;;4999804;28;20227;-50
2022/03/28 03:02:23;;;;;;;19.30;12.57;;;5.00;99.90;;;;;;4999786;28;20228;-48
2022/03/28 03:04:51;;;;;;;19.00;11.48;;;5.10;99.90;;;;;;4999741;28;20200;-51
2022/03/28 03:07:18;;;;;;;19.27;11.82;;;5.10;99.90;;;;;;4999439;28;20196;-48
2022/03/28 03:09:47;;;;;;;18.20;13.48;;;5.00;99.90;;;;;;4999456;28;20220;-54
2022/03/28 03:12:15;;;;;;;13.95;11.82;;;4.90;99.90;;;;;;4999257;28;20251;-51
2022/03/28 03:14:43;;;;;;;20.33;13.27;;;5.00;99.90;;;;;;4999457;28;20204;-50
2022/03/28 03:17:11;;;;;;;19.85;11.25;;;5.00;99.90;;;;;;4999502;28;20210;-49
2022/03/28 03:19:40;;;;;;;23.48;11.93;;;5.10;99.90;;;;;;4999584;28;20535;-52
2022/03/28 03:22:09;;;;;;;22.73;14.05;;;5.00;99.90;;;;;;4999347;28;20225;-55
2022/03/28 03:24:37;;;;;;;19.73;10.57;;;5.00;99.90;;;;;;4999899;28;20201;-48
2022/03/28 03:27:07;;;;;;;22.88;13.70;;;4.90;99.90;;;;;;4999384;28;20210;-49
2022/03/28 03:29:35;;;;;;;17.70;10.60;;;4.90;99.90;;;;;;5003504;28;20208;-50
2022/03/28 03:32:03;;;;;;;18.92;13.00;;;5.00;99.90;;;;;;5003730;28;20224;-57
2022/03/28 03:34:32;;;;;;;15.88;11.13;;;5.00;99.90;;;;;;5003157;28;20243;-53
2022/03/28 03:37:00;;;;;;;18.88;10.73;;;5.20;99.90;;;;;;5003318;28;20209;-54
2022/03/28 03:39:27;;;;;;;21.58;13.38;;;5.20;99.90;;;;;;5003233;28;20389;-49
2022/03/28 03:41:55;;;;;;;19.70;11.32;;;5.20;99.90;;;;;;5003130;28;20289;-48
2022/03/28 03:44:23;;;;;;;19.23;11.20;;;5.30;99.90;;;;;;5003047;28;20198;-50
2022/03/28 03:46:50;;;;;;;19.48;11.52;;;5.30;99.90;;;;;;5002141;28;20200;-48
2022/03/28 03:49:17;;;;;;;14.50;10.30;;;5.30;99.90;;;;;;5002649;28;20201;-52
2022/03/28 03:51:45;;;;;;;16.65;11.40;;;5.30;99.90;;;;;;5003022;28;20314;-49
2022/03/28 03:54:13;;;;;;;18.60;11.70;;;5.10;99.90;;;;;;5003090;28;20207;-49
2022/03/28 03:56:40;;;;;;;14.15;9.90;;;5.10;99.90;;;;;;5002821;28;20212;-54
2022/03/28 03:59:07;;;;;;;19.15;12.43;;;5.20;99.90;;;;;;5001614;28;20248;-54
2022/03/28 04:01:34;;;;;;;20.63;12.13;;;5.20;99.90;;;;;;5001956;28;20547;-52
2022/03/28 04:04:01;;;;;;;19.48;11.50;;;5.20;99.90;;;;;;5002650;28;20409;-48
2022/03/28 04:06:28;;;;;;;20.35;10.85;;;5.10;99.90;;;;;;5002416;28;20201;-52
2022/03/28 04:08:55;;;;;;;19.70;11.88;;;5.10;99.90;;;;;;5003105;28;20534;-51
2022/03/28 04:11:23;;;;;;;18.35;11.95;;;5.10;99.90;;;;;;5002425;28;20239;-51
2022/03/28 04:13:50;;;;;;;17.17;11.00;;;5.10;99.90;;;;;;5001454;28;20208;-49
2022/03/28 04:16:17;;;;;;;19.00;11.80;;;5.10;99.90;;;;;;5002641;28;20262;-49
2022/03/28 04:18:44;;;;;;;23.38;12.85;;;5.00;99.90;;;;;;5002590;28;20240;-49
2022/03/28 04:21:11;;;;;;;18.52;11.50;;;5.00;99.90;;;;;;5002366;28;20376;-52
2022/03/28 04:23:39;;;;;;;17.67;12.05;;;5.10;99.90;;;;;;5002598;28;20223;-52
2022/03/28 04:26:06;;;;;;;18.67;11.07;;;5.00;99.90;;;;;;5002879;28;20205;-49
2022/03/28 04:28:33;;;;;;;20.40;12.13;;;5.00;99.90;;;;;;5002582;28;20223;-48
2022/03/28 04:31:00;;;;;;;19.00;10.80;;;5.10;99.90;;;;;;5002569;28;20291;-47
2022/03/28 04:33:27;;;;;;;14.80;10.70;;;5.00;99.90;;;;;;5002655;28;20554;-47
2022/03/28 04:35:54;;;;;;;18.67;12.50;;;5.00;99.90;;;;;;5002896;28;20204;-49
2022/03/28 04:38:24;;;;;;;20.02;11.75;;;5.10;99.90;;;;;;5001991;28;20208;-49
2022/03/28 04:40:52;;;;;;;16.75;12.50;;;5.00;99.90;;;;;;5002143;28;20228;-48
2022/03/28 04:43:21;;;;;;;19.73;12.38;;;5.00;99.90;;;;;;5001976;28;20428;-49
2022/03/28 04:45:48;;;;;;;21.42;12.38;;;5.00;99.90;;;;;;5002079;28;20216;-50
2022/03/28 04:48:16;;;;;;;19.85;13.20;;;5.00;99.90;;;;;;4997633;28;20224;-53
2022/03/28 04:50:43;;;;;;;23.95;11.18;;;5.10;99.90;;;;;;4996279;28;20212;-50
2022/03/28 04:53:10;;;;;;;18.95;12.43;;;5.10;99.90;;;;;;5001546;28;20205;-52
2022/03/28 04:55:38;;;;;;;16.15;10.75;;;5.20;99.90;;;;;;5000286;28;20570;-52
2022/03/28 04:58:05;;;;;;;16.48;11.50;;;5.20;99.90;;;;;;5001408;28;20201;-51
2022/03/28 05:00:32;;;;;;;17.00;10.55;;;5.30;99.90;;;;;;5001399;28;20221;-52
2022/03/28 05:03:00;;;;;;;14.68;11.45;;;5.40;99.90;;;;;;5000733;28;20201;-48
2022/03/28 05:05:37;;;;;;;18.85;10.85;;;5.50;99.90;;;;;;5000849;28;20539;-49
2022/03/28 05:08:04;;;;;;;19.30;13.05;;;5.80;99.90;;;;;;5000687;28;20400;-47
2022/03/28 05:10:36;;;;;;;18.77;12.32;;;6.00;99.90;;;;;;5000966;28;20396;-49
2022/03/28 05:13:04;;;;;;;15.57;9.80;;;6.30;99.90;;;;;;5001039;28;20205;-54
2022/03/28 05:15:31;;;;;;;25.95;13.57;;;6.60;99.90;;;;;;5001854;28;20201;-48
2022/03/28 05:18:01;;;;;;;21.08;10.95;;;6.90;99.90;;;;;;5001562;28;20208;-51
2022/03/28 05:20:28;;;;;;;16.15;10.65;;;7.20;99.90;;;;;;5001208;28;20533;-46
2022/03/28 05:22:55;;;;;;;13.82;9.70;;;7.50;99.90;;;;;;5001036;28;20209;-52
2022/03/28 05:25:23;;;;;;;14.40;9.45;;;7.80;99.90;;;;;;4999907;28;20198;-50
2022/03/28 05:27:51;;;;;;;12.02;9.13;;;8.20;99.90;;;;;;5000881;28;20234;-48
2022/03/28 05:30:18;;;;;;;25.55;10.75;;;8.40;99.90;;;;;;5000499;28;20199;-53
2022/03/28 05:32:45;;;;;;;15.30;11.00;;;8.80;99.90;;;;;;5000709;28;20540;-52
2022/03/28 05:35:13;;;;;;;13.15;9.60;;;9.10;99.90;;;;;;5000222;28;20208;-52
2022/03/28 05:37:41;;;;;;;14.32;8.65;;;9.70;99.90;;;;;;4999562;28;20208;-51
2022/03/28 05:40:10;;;;;;;12.48;10.23;;;10.20;99.90;;;;;;4992649;28;20236;-52
2022/03/28 05:42:38;;;;;;;21.00;10.88;;;11.10;99.90;;;;;;4981709;28;20296;-48
2022/03/28 05:45:05;;;;;;;20.45;11.95;;;11.80;99.90;;;;;;4992108;28;20219;-53
2022/03/28 05:47:32;;;;;;;19.42;11.18;;;12.60;99.90;;;;;;4986810;28;20201;-50
2022/03/28 05:49:59;;;;;;;15.30;10.80;;;13.40;99.90;;;;;;4997827;28;20198;-49
2022/03/28 05:52:28;;;;;;;16.67;12.68;;;13.90;99.90;;;;;;4998719;28;20623;-55
2022/03/28 05:54:55;;;;;;;15.37;11.40;;;14.70;99.90;;;;;;5000262;28;20210;-56
2022/03/28 05:57:23;;;;;;;27.77;11.63;;;15.00;99.90;;;;;;4999894;28;20444;-50
2022/03/28 05:59:51;;;;;;;14.87;10.10;;;15.30;99.90;;;;;;5000118;28;20412;-53
2022/03/28 06:02:18;;;;;;;15.10;11.40;;;15.40;99.90;;;;;;4999861;28;20440;-51
2022/03/28 06:04:47;;;;;;;16.67;11.30;;;15.80;99.90;;;;;;4999952;28;20444;-50
2022/03/28 06:07:14;;;;;;;20.40;12.00;;;16.50;99.20;;;;;;5000060;28;20761;-50
2022/03/28 06:09:42;;;;;;;11.13;10.03;;;17.10;98.40;;;;;;5000044;28;20490;-55
2022/03/28 06:12:10;;;;;;;12.30;9.37;;;17.90;96.10;;;;;;4999441;28;20518;-51
2022/03/28 06:14:37;;;;;;;15.43;10.93;;;18.40;93.90;;;;;;5000024;28;20444;-50
2022/03/28 06:17:04;;;;;;;11.97;8.20;;;18.60;92.20;;;;;;4999912;28;20436;-55
2022/03/28 06:19:31;;;;;;;13.43;10.00;;;19.00;91.80;;;;;;4999958;28;20491;-51
2022/03/28 06:21:58;;;;;;;11.50;9.77;;;19.40;90.50;;;;;;4999798;28;20482;-51
2022/03/28 06:24:26;;;;;;;15.17;10.47;;;20.10;87.10;;;;;;4999918;28;20479;-54
2022/03/28 06:26:54;;;;;;;10.07;9.03;;;21.00;84.10;;;;;;4999599;28;20841;-51
2022/03/28 06:29:21;;;;;;;14.00;9.03;;;21.60;80.20;;;;;;4999477;28;20436;-56
2022/03/28 06:31:48;;;;;;;11.07;8.67;;;22.20;75.90;;;;;;4999599;28;20432;-54
2022/03/28 06:34:16;;;;;;;18.17;8.97;;;22.20;74.30;;;;;;4999712;28;20597;-54
2022/03/28 06:36:44;;;;;;;17.53;10.80;;;22.40;73.00;;;;;;4999423;28;20547;-55
2022/03/28 06:39:12;;;;;;;12.77;9.30;;;23.30;69.70;;;;;;4999846;28;20402;-53
2022/03/28 06:41:39;;;;;;;9.70;7.30;;;23.80;67.50;;;;;;5000071;28;20476;-54
2022/03/28 06:44:11;;;;;;;10.10;7.53;;;24.10;65.60;;;;;;4999450;28;20414;-56
2022/03/28 06:46:40;;;;;;;13.90;8.90;;;24.80;64.00;;;;;;4999859;28;20404;-55
2022/03/28 06:49:08;;;;;;;18.43;9.93;;;25.40;61.20;;;;;;4999227;28;20432;-54
2022/03/28 06:51:36;;;;;;;12.93;8.23;;;25.40;60.10;;;;;;4999269;28;20468;-57
2022/03/28 06:54:05;;;;;;;10.83;8.97;;;25.50;59.10;;;;;;4999239;28;20452;-50
2022/03/28 06:56:33;;;;;;;12.60;8.00;;;25.80;58.30;;;;;;4999180;28;20465;-56
2022/03/28 06:59:00;;;;;;;10.60;7.43;;;26.50;57.20;;;;;;4999001;28;20435;-50
2022/03/28 07:01:28;;;;;;;14.07;8.57;;;27.10;55.90;;;;;;4999184;28;20479;-56
2022/03/28 07:03:55;;;;;;;12.60;7.47;;;27.80;54.20;;;;;;4983469;28;20487;-55
2022/03/28 07:06:23;;;;;;;10.13;7.37;;;28.00;53.40;;;;;;4983986;28;20552;-53
2022/03/28 07:08:51;;;;;;;9.87;7.90;;;27.30;53.10;;;;;;4984135;28;20759;-52
2022/03/28 07:11:18;;;;;;;14.53;8.33;;;26.80;53.90;;;;;;4983848;28;20519;-53
2022/03/28 07:13:45;;;;;;;11.03;8.47;;;27.20;53.10;;;;;;4983981;28;20667;-54
2022/03/28 07:16:12;;;;;;;14.80;7.87;;;27.50;53.00;;;;;;4983581;28;20440;-55
2022/03/28 07:18:39;;;;;;;12.90;7.03;;;27.60;52.10;;;;;;4984012;28;20817;-55
2022/03/28 07:21:07;;;;;;;11.90;7.83;;;27.50;52.00;;;;;;4984114;28;20683;-52
2022/03/28 07:23:34;;;;;;;6.93;6.33;;;27.80;51.80;;;;;;4983588;28;20810;-57
2022/03/28 07:26:01;;;;;;;9.93;7.80;;;27.70;51.50;;;;;;4983931;28;20472;-54
2022/03/28 07:28:29;;;;;;;7.30;6.57;;;27.00;52.70;;;;;;4996910;28;20439;-55
2022/03/28 07:30:57;;;;;;;11.40;7.30;;;27.50;52.20;;;;;;5003210;28;20745;-54
2022/03/28 07:33:24;;;;;;;11.80;6.93;;;27.80;52.00;;;;;;5002643;28;20500;-57
2022/03/28 07:35:51;;;;;;;8.17;6.43;;;28.70;50.90;;;;;;5002959;28;20489;-55
2022/03/28 07:38:19;;;;;;;9.30;6.43;;;28.90;50.30;;;;;;5002695;28;20508;-56
2022/03/28 07:40:46;;;;;;;9.30;6.97;;;30.00;49.30;;;;;;5003083;28;20469;-56
2022/03/28 07:43:14;;;;;;;10.83;6.30;;;30.60;48.40;;;;;;5002415;28;20444;-57
2022/03/28 07:45:44;;;;;;;9.03;6.33;;;30.20;47.90;;;;;;5003288;28;20437;-53
2022/03/28 07:48:13;;;;;;;9.80;6.80;;;29.40;49.10;;;;;;5002795;28;20499;-52
2022/03/28 07:50:45;;;;;;;9.10;6.97;;;29.10;49.70;;;;;;5002365;28;20502;-56
2022/03/28 07:53:19;;;;;;;8.10;7.10;;;28.30;50.40;;;;;;5002588;28;20664;-55
2022/03/28 07:55:46;;;;;;;12.93;7.20;;;27.20;52.20;;;;;;5002644;28;20509;-54
2022/03/28 07:58:14;;;;;;;6.20;5.53;;;27.50;52.10;;;;;;4993923;28;20451;-54
2022/03/28 08:00:41;;;;;;;5.90;5.17;;;27.60;52.20;;;;;;5002105;28;20482;-54
2022/03/28 08:03:09;;;;;;;5.90;5.10;;;26.00;54.20;;;;;;5002347;28;20438;-55
2022/03/28 08:05:36;;;;;;;7.40;4.70;;;25.60;54.80;;;;;;5000978;28;20634;-51
2022/03/28 08:08:03;;;;;;;6.00;5.40;;;25.50;55.60;;;;;;5002341;28;20654;-57
2022/03/28 08:10:30;;;;;;;6.80;5.43;;;25.90;55.10;;;;;;5002387;28;20431;-50
2022/03/28 08:12:58;;;;;;;9.17;6.50;;;25.80;55.40;;;;;;5002255;28;20661;-51
2022/03/28 08:15:25;;;;;;;6.80;4.93;;;25.50;55.90;;;;;;5002225;28;20431;-55
2022/03/28 08:17:56;;;;;;;5.97;4.90;;;26.50;55.60;;;;;;5002109;28;20597;-52
2022/03/28 08:20:23;;;;;;;5.83;4.60;;;26.90;54.40;;;;;;5002100;28;20431;-56
2022/03/28 08:22:51;;;;;;;5.20;4.70;;;26.70;55.00;;;;;;5001650;28;20607;-55
2022/03/28 08:25:21;;;;;;;8.63;6.30;;;25.70;55.60;;;;;;5002280;28;20434;-53
2022/03/28 08:27:48;;;;;;;7.77;6.03;;;25.40;56.90;;;;;;5002416;28;20754;-55
2022/03/28 08:30:16;;;;;;;8.27;6.27;;;25.20;57.40;;;;;;5001466;28;20432;-49
2022/03/28 08:32:46;;;;;;;7.60;6.37;;;25.90;56.80;;;;;;5001705;28;20466;-55
2022/03/28 08:35:14;;;;;;;5.10;4.60;;;27.70;54.20;;;;;;5001986;28;20935;-53
2022/03/28 08:37:42;;;;;;;6.00;4.40;;;28.50;53.10;;;;;;5002090;28;20564;-52
2022/03/28 08:40:13;;;;;;;8.13;5.90;;;28.50;52.40;;;;;;5001732;28;20610;-51
2022/03/28 08:42:41;;;;;;;5.60;4.53;;;29.00;52.10;;;;;;4997931;28;20487;-51
2022/03/28 08:45:11;;;;;;;5.60;4.93;;;28.50;52.40;;;;;;4994750;28;20447;-55
2022/03/28 08:47:42;;;;;;;8.70;6.87;;;28.30;52.40;;;;;;4996516;28;20443;-52
2022/03/28 08:50:30;;;;;;;7.10;6.50;;;28.00;52.80;;;;;;4994799;28;20530;-54
2022/03/28 08:52:58;;;;;;;8.43;6.37;;;27.10;54.20;;;;;;5001491;28;20447;-53
2022/03/28 08:55:25;;;;;;;5.87;5.30;;;27.70;53.80;;;;;;5000876;28;20445;-56
2022/03/28 08:57:52;;;;;;;6.67;5.40;;;27.50;53.60;;;;;;5001261;28;20481;-53
2022/03/28 09:00:20;;;;;;;8.80;6.23;;;27.80;54.00;;;;;;4997142;28;20676;-53
2022/03/28 09:02:49;;;;;;;6.67;5.27;;;28.10;53.40;;;;;;4997963;28;20463;-52
2022/03/28 09:05:18;;;;;;;6.07;5.57;;;29.20;52.10;;;;;;5001511;28;20432;-53
2022/03/28 09:07:46;;;;;;;5.27;4.87;;;28.60;52.50;;;;;;5001373;28;20432;-52
2022/03/28 09:10:14;;;;;;;8.43;6.90;;;28.10;53.70;;;;;;5001264;28;20427;-56
2022/03/28 09:13:02;;;;;;;7.83;6.00;;;28.00;53.80;;;;;;5001214;28;20490;-57
2022/03/28 09:15:43;;;;;;;7.97;6.50;;;27.80;54.00;;;;;;5001174;28;20512;-53
2022/03/28 09:18:23;;;;;;;12.37;6.27;;;27.80;54.00;;;;;;5000958;28;20434;-53
2022/03/28 09:20:58;;;;;;;9.00;7.77;;;26.90;55.70;;;;;;5000981;28;20758;-54
2022/03/28 09:23:38;;;;;;;8.57;6.00;;;26.40;56.00;;;;;;5000803;28;20428;-54
2022/03/28 09:26:16;;;;;;;8.80;5.40;;;25.80;57.20;;;;;;5000319;28;20421;-56
2022/03/28 09:28:53;;;;;;;6.70;5.37;;;25.20;58.00;;;;;;5000904;28;20474;-53
2022/03/28 09:31:24;;;;;;;8.53;6.17;;;23.90;60.70;;;;;;4993394;28;20509;-54
2022/03/28 09:34:11;;;;;;;8.03;5.90;;;23.30;62.40;;;;;;5001001;28;20631;-55
2022/03/28 09:36:53;;;;;;;6.77;6.17;;;22.70;63.20;;;;;;4999565;28;20427;-53
2022/03/28 09:39:25;;;;;;;13.83;6.73;;;21.30;66.60;;;;;;5001603;28;20445;-54
2022/03/28 09:42:05;;;;;;;6.17;5.57;;;21.10;67.70;;;;;;5000868;28;20497;-56
2022/03/28 09:44:44;;;;;;;7.40;5.70;;;21.30;66.90;;;;;;5000817;28;20427;-52
2022/03/28 09:47:20;;;;;;;7.63;5.80;;;21.30;66.50;;;;;;5000659;28;20425;-54
2022/03/28 09:49:51;;;;;;;7.80;6.13;;;21.20;67.50;;;;;;5000990;28;20678;-54
2022/03/28 09:52:21;;;;;;;6.33;5.17;;;20.80;67.60;;;;;;4999876;28;20471;-55
2022/03/28 09:54:51;;;;;;;7.20;6.30;;;20.40;68.40;;;;;;5000656;28;20434;-55
2022/03/28 09:57:37;;;;;;;7.20;5.90;;;19.80;69.40;;;;;;5000126;28;20588;-55
2022/03/28 10:00:12;;;;;;;7.93;7.03;;;19.40;71.00;;;;;;5000252;28;20630;-54
2022/03/28 10:02:40;;;;;;;10.33;6.30;;;19.10;72.70;;;;;;5000431;28;20525;-57
2022/03/28 10:05:08;;;;;;;6.90;5.70;;;18.90;73.00;;;;;;5000123;28;20505;-54
2022/03/28 10:07:36;;;;;;;6.60;5.97;;;18.60;73.60;;;;;;5000754;28;20415;-55
2022/03/28 10:10:04;;;;;;;7.83;7.00;;;18.50;73.20;;;;;;5000246;28;20471;-52
2022/03/28 10:12:31;;;;;;;8.13;6.93;;;18.50;74.00;;;;;;5000607;28;20472;-51
2022/03/28 10:15:00;;;;;;;10.80;6.40;;;18.30;73.90;;;;;;5000209;28;20464;-52
2022/03/28 10:17:29;;;;;;;7.70;6.20;;;18.20;74.10;;;;;;4999939;28;20478;-53
2022/03/28 10:19:58;;;;;;;9.13;5.90;;;18.20;74.60;;;;;;5000186;28;20401;-55
2022/03/28 10:22:42;;;;;;;6.90;6.10;;;18.30;75.40;;;;;;5000021;28;20936;-51
2022/03/28 10:25:18;;;;;;;9.50;6.70;;;18.40;75.30;;;;;;4994972;28;20443;-55
2022/03/28 10:27:46;;;;;;;6.77;6.10;;;18.50;75.00;;;;;;4993150;28;20490;-53
2022/03/28 10:30:24;;;;;;;8.00;5.77;;;18.60;74.40;;;;;;4992151;28;20484;-56
2022/03/28 10:33:19;;;;;;;8.77;7.03;;;18.40;74.00;;;;;;4993605;28;20734;-51
2022/03/28 10:36:02;;;;;;;6.57;5.63;;;18.30;73.90;;;;;;4992785;28;20419;-53
2022/03/28 10:38:30;;;;;;;10.13;6.20;;;18.10;74.60;;;;;;4992696;28;20512;-52
2022/03/28 10:40:59;;;;;;;7.67;5.43;;;18.10;74.30;;;;;;4992499;28;20466;-55
2022/03/28 10:43:33;;;;;;;8.40;6.73;;;18.30;74.00;;;;;;4997360;28;20746;-55
2022/03/28 10:46:09;;;;;;;7.47;6.60;;;18.30;75.00;;;;;;5000445;28;20643;-53
2022/03/28 10:48:40;;;;;;;7.37;6.60;;;18.20;74.70;;;;;;5000442;28;20431;-57
2022/03/28 10:51:24;;;;;;;10.70;7.03;;;18.00;75.30;;;;;;5000254;28;20477;-56
2022/03/28 10:54:05;;;;;;;5.83;5.23;;;18.10;75.10;;;;;;5000201;28;20436;-52
2022/03/28 10:56:38;;;;;;;7.33;6.63;;;18.20;74.60;;;;;;4999832;28;20462;-54
2022/03/28 10:59:08;;;;;;;10.17;7.73;;;18.10;75.00;;;;;;4999381;28;20434;-55
2022/03/28 11:01:44;;;;;;;9.70;7.00;;;18.20;75.70;;;;;;4999613;28;20446;-55
2022/03/28 11:04:24;;;;;;;6.07;5.47;;;18.20;76.00;;;;;;4999493;28;20477;-56
2022/03/28 11:07:04;;;;;;;7.10;6.40;;;18.30;76.20;;;;;;5000140;28;20825;-52
2022/03/28 11:09:41;;;;;;;7.77;6.20;;;18.30;74.00;;;;;;4999793;28;20438;-54
2022/03/28 11:12:30;;;;;;;8.53;5.33;;;18.30;73.90;;;;;;4999433;28;20440;-52
2022/03/28 11:15:05;;;;;;;10.17;7.27;;;18.30;72.70;;;;;;4999786;28;20414;-50
2022/03/28 11:17:35;;;;;;;8.10;5.80;;;18.30;72.90;;;;;;4999752;28;20663;-56
2022/03/28 11:20:09;;;;;;;8.40;6.00;;;18.40;73.50;;;;;;5000243;28;20434;-56
2022/03/28 11:22:48;;;;;;;7.53;5.77;;;18.40;73.10;;;;;;4999749;28;20456;-53
2022/03/28 11:25:46;;;;;;;7.37;6.30;;;18.40;73.80;;;;;;4999489;28;20402;-52
2022/03/28 11:28:24;;;;;;;7.00;5.30;;;18.40;74.80;;;;;;4998805;28;20414;-55
2022/03/28 11:31:05;;;;;;;6.63;5.37;;;18.60;73.30;;;;;;4999504;28;20450;-51
2022/03/28 11:33:44;;;;;;;10.33;5.20;;;18.70;71.60;;;;;;4999486;28;20457;-52
2022/03/28 11:36:20;;;;;;;7.40;5.47;;;18.70;71.10;;;;;;4999430;28;20498;-53
2022/03/28 11:38:50;;;;;;;7.47;5.23;;;18.70;72.30;;;;;;4999821;28;20414;-52
2022/03/28 11:41:20;;;;;;;7.40;5.77;;;18.50;73.00;;;;;;4999519;28;20430;-53
2022/03/28 11:43:53;;;;;;;6.17;5.13;;;18.60;73.30;;;;;;4999909;28;20409;-55
2022/03/28 11:46:27;;;;;;;6.30;5.20;;;18.70;72.80;;;;;;4999458;28;20414;-53
2022/03/28 11:49:07;;;;;;;10.30;6.37;;;18.70;71.90;;;;;;5000548;28;20473;-54
2022/03/28 11:51:39;;;;;;;7.17;5.77;;;18.80;72.20;;;;;;5002212;28;20459;-57
2022/03/28 11:54:08;;;;;;;8.43;6.40;;;19.00;69.80;;;;;;5003413;28;20435;-53
2022/03/28 11:59:28;;;;;;;5.37;4.77;;;18.80;69.50;;;;;;5002206;28;20654;-53
2022/03/28 12:01:58;;;;;;;5.87;4.60;;;18.70;70.00;;;;;;5001865;28;20764;-55
2022/03/28 12:04:26;;;;;;;8.43;5.60;;;18.80;70.50;;;;;;5000675;28;20639;-52
2022/03/28 12:06:56;;;;;;;9.10;6.73;;;18.90;70.30;;;;;;5002646;28;20435;-53
2022/03/28 12:09:24;;;;;;;6.00;4.83;;;19.10;70.70;;;;;;5002921;28;20402;-53
2022/03/28 12:11:54;;;;;;;9.60;5.50;;;19.10;70.10;;;;;;5002324;28;20821;-49
2022/03/28 12:14:22;;;;;;;7.80;5.30;;;19.00;70.00;;;;;;5001230;28;20505;-52
2022/03/28 12:16:54;;;;;;;7.87;5.17;;;19.10;69.70;;;;;;5001265;28;20417;-52
2022/03/28 12:19:27;;;;;;;7.70;4.30;;;19.00;70.10;;;;;;5001982;28;20697;-51
2022/03/28 12:21:58;;;;;;;6.30;4.70;;;19.00;69.40;;;;;;5002338;28;20474;-55
2022/03/28 12:24:28;;;;;;;7.43;4.50;;;19.10;68.00;;;;;;5002291;28;20572;-55
2022/03/28 12:26:59;;;;;;;6.70;4.90;;;19.10;68.90;;;;;;5002949;28;20866;-54
2022/03/28 12:29:32;;;;;;;10.10;5.50;;;19.10;70.00;;;;;;5002693;28;20918;-55
2022/03/28 12:32:03;;;;;;;5.07;4.57;;;19.20;68.10;;;;;;5002325;28;20438;-50
2022/03/28 12:34:31;;;;;;;10.63;6.00;;;19.00;67.70;;;;;;5001960;28;20410;-53
2022/03/28 12:36:58;;;;;;;7.90;5.27;;;19.00;68.70;;;;;;5002008;28;20505;-54
2022/03/28 12:39:27;;;;;;;6.07;4.87;;;18.90;69.40;;;;;;5002064;28;20642;-55
2022/03/28 12:41:56;;;;;;;7.00;4.43;;;18.90;68.10;;;;;;5000830;28;20782;-54
2022/03/28 12:44:26;;;;;;;8.13;5.10;;;18.90;68.80;;;;;;5001640;28;20431;-52
2022/03/28 12:47:04;;;;;;;6.90;5.13;;;18.90;69.10;;;;;;5001743;28;20443;-52
2022/03/28 12:49:43;;;;;;;6.23;5.63;;;18.90;69.30;;;;;;5002076;28;20650;-54
2022/03/28 12:52:14;;;;;;;7.77;5.20;;;19.00;69.60;;;;;;5001923;28;20494;-57
2022/03/28 12:54:42;;;;;;;9.00;5.50;;;19.10;70.10;;;;;;5002284;28;20447;-54
2022/03/28 12:57:10;;;;;;;5.90;4.93;;;19.00;70.60;;;;;;5001706;28;20490;-56